Time;durP1;ratioP1;P1;durP2;ratioP2;P2;SDS_P1;SDS_P2;PMS_P1;PMS_P2;Temp;Humidity;BMP_temperature;BMP_pressure;BME280_temperature;BME280_humidity;BME280_pressure;Samples;Min_cycle;Max_cycle;Signal;HPM_P1;HPM_P2
2022/11/10 00:01:22;;;;;;;4.53;2.07;;;12.60;99.90;;;;;;5015356;28;20657;-32
2022/11/10 00:03:51;;;;;;;8.20;2.27;;;12.50;99.90;;;;;;5011102;28;20587;-31
2022/11/10 00:06:23;;;;;;;8.37;2.10;;;12.50;99.90;;;;;;5003818;28;20205;-32
2022/11/10 00:08:50;;;;;;;9.73;2.37;;;12.50;99.90;;;;;;5001466;28;20740;-31
2022/11/10 00:11:20;;;;;;;6.67;1.87;;;12.50;99.90;;;;;;5007186;28;20320;-31
2022/11/10 00:19:25;;;;;;;4.87;1.83;;;12.50;99.90;;;;;;5009175;28;20979;-31
2022/11/10 00:21:52;;;;;;;9.17;2.57;;;12.50;99.90;;;;;;5010598;28;20218;-31
2022/11/10 00:24:23;;;;;;;11.13;2.17;;;12.40;99.90;;;;;;5015745;28;20213;-31
2022/11/10 00:26:58;;;;;;;5.53;2.20;;;12.40;99.90;;;;;;5022863;28;20211;-31
2022/11/10 00:29:25;;;;;;;11.57;2.90;;;12.40;99.90;;;;;;5023372;28;20580;-31
2022/11/10 00:31:57;;;;;;;9.10;2.57;;;12.40;99.90;;;;;;5007631;28;20215;-31
2022/11/10 00:34:24;;;;;;;10.50;2.63;;;12.40;99.90;;;;;;5015876;28;20210;-31
2022/11/10 00:36:51;;;;;;;7.30;1.93;;;12.40;99.90;;;;;;5006969;28;20237;-32
2022/11/10 00:39:23;;;;;;;9.00;2.30;;;12.40;99.90;;;;;;5002255;28;20508;-31
2022/11/10 00:41:54;;;;;;;7.27;2.07;;;12.30;99.90;;;;;;5029931;28;20197;-31
2022/11/10 00:44:24;;;;;;;7.83;2.40;;;12.30;99.90;;;;;;5004559;28;20312;-32
2022/11/10 00:46:51;;;;;;;10.73;2.63;;;12.30;99.90;;;;;;5009079;28;20225;-30
2022/11/10 00:49:18;;;;;;;7.03;2.03;;;12.30;99.90;;;;;;4986889;28;20238;-30
2022/11/10 00:51:47;;;;;;;6.73;1.90;;;12.30;99.90;;;;;;5004150;28;20205;-30
2022/11/10 00:54:24;;;;;;;8.60;2.40;;;12.30;99.90;;;;;;5022508;28;20730;-30
2022/11/10 00:56:56;;;;;;;7.63;2.40;;;12.30;99.90;;;;;;5013118;28;20232;-30
2022/11/10 00:59:23;;;;;;;7.23;2.23;;;12.30;99.90;;;;;;5007221;28;20213;-30
2022/11/10 01:01:50;;;;;;;4.00;1.93;;;12.30;99.90;;;;;;5009367;28;20208;-30
2022/11/10 01:04:21;;;;;;;6.20;2.00;;;12.30;99.90;;;;;;5008308;28;20225;-30
2022/11/10 01:06:52;;;;;;;8.40;2.37;;;12.30;99.90;;;;;;5004884;28;20320;-29
2022/11/10 01:09:19;;;;;;;7.67;2.23;;;12.30;99.90;;;;;;5019279;28;20249;-30
2022/11/10 01:11:46;;;;;;;8.43;2.30;;;12.30;99.90;;;;;;5012560;28;20211;-30
2022/11/10 01:14:13;;;;;;;9.40;2.30;;;12.30;99.90;;;;;;5023037;28;20205;-30
2022/11/10 01:16:43;;;;;;;9.00;2.50;;;12.30;99.90;;;;;;5009650;28;20225;-30
2022/11/10 01:19:13;;;;;;;10.40;2.60;;;12.30;99.90;;;;;;4997457;28;20217;-30
2022/11/10 01:21:45;;;;;;;6.57;2.20;;;12.30;99.90;;;;;;5009647;28;20201;-30
2022/11/10 01:24:18;;;;;;;10.17;2.60;;;12.30;99.90;;;;;;5013618;28;20214;-30
2022/11/10 01:26:50;;;;;;;8.13;2.60;;;12.20;99.90;;;;;;4996114;28;20664;-30
2022/11/10 01:29:17;;;;;;;13.40;2.80;;;12.20;99.90;;;;;;5017727;28;20228;-30
2022/11/10 01:31:46;;;;;;;8.50;2.80;;;12.30;99.90;;;;;;5003639;28;20214;-30
2022/11/10 01:34:13;;;;;;;5.93;2.33;;;12.30;99.90;;;;;;5012557;28;20212;-30
2022/11/10 01:36:40;;;;;;;7.10;2.90;;;12.20;99.90;;;;;;5017845;28;20968;-30
2022/11/10 01:39:09;;;;;;;10.33;2.40;;;12.20;99.90;;;;;;5006340;28;20265;-30
2022/11/10 01:41:39;;;;;;;9.03;2.43;;;12.20;99.90;;;;;;5015746;28;20220;-30
2022/11/10 01:44:21;;;;;;;10.50;2.63;;;12.30;99.90;;;;;;5003441;28;20576;-30
2022/11/10 01:46:48;;;;;;;9.50;3.20;;;12.30;99.90;;;;;;4992617;28;20209;-30
2022/11/10 01:49:22;;;;;;;9.27;2.93;;;12.30;99.90;;;;;;5009663;28;20221;-30
2022/11/10 01:51:55;;;;;;;9.70;2.80;;;12.30;99.90;;;;;;5008932;28;20285;-30
2022/11/10 01:54:37;;;;;;;9.57;2.60;;;12.40;99.90;;;;;;4999532;28;20198;-30
2022/11/10 01:57:07;;;;;;;7.27;2.77;;;12.40;99.90;;;;;;5004259;28;20236;-30
2022/11/10 01:59:41;;;;;;;7.10;2.70;;;12.30;99.90;;;;;;4999193;28;20208;-30
2022/11/10 02:02:31;;;;;;;13.97;3.27;;;12.30;99.90;;;;;;5003363;28;20618;-30
2022/11/10 02:05:00;;;;;;;14.30;3.40;;;12.30;99.90;;;;;;4985009;28;20313;-30
2022/11/10 02:07:31;;;;;;;9.63;3.03;;;12.30;99.90;;;;;;5000596;28;20668;-30
2022/11/10 02:10:02;;;;;;;9.93;3.10;;;12.30;99.90;;;;;;5007015;28;20205;-29
2022/11/10 02:12:37;;;;;;;10.07;2.93;;;12.30;99.90;;;;;;5009748;28;20586;-30
2022/11/10 02:15:06;;;;;;;13.47;3.00;;;12.30;99.90;;;;;;5008996;28;20213;-30
2022/11/10 02:17:38;;;;;;;8.70;3.03;;;12.20;99.90;;;;;;5006235;28;20229;-30
2022/11/10 02:20:09;;;;;;;9.27;2.67;;;12.20;99.90;;;;;;5003527;28;20208;-30
2022/11/10 02:22:37;;;;;;;8.37;2.67;;;12.30;99.90;;;;;;5006764;28;20210;-30
2022/11/10 02:25:10;;;;;;;8.77;3.13;;;12.30;99.90;;;;;;5017473;28;20208;-30
2022/11/10 02:27:39;;;;;;;8.90;2.80;;;12.30;99.90;;;;;;5017660;28;20206;-30
2022/11/10 02:30:07;;;;;;;11.63;2.93;;;12.30;99.90;;;;;;5007451;28;20213;-30
2022/11/10 02:32:37;;;;;;;10.03;2.90;;;12.30;99.90;;;;;;5015097;28;21033;-30
2022/11/10 02:35:09;;;;;;;11.30;3.03;;;12.30;99.90;;;;;;5012065;28;20659;-30
2022/11/10 02:37:38;;;;;;;12.10;3.53;;;12.30;99.90;;;;;;4988208;28;20233;-30
2022/11/10 02:40:11;;;;;;;10.27;2.97;;;12.30;99.90;;;;;;4999468;28;20201;-34
2022/11/10 02:42:40;;;;;;;12.37;2.97;;;12.30;99.90;;;;;;5004210;28;20231;-29
2022/11/10 02:45:07;;;;;;;9.20;2.80;;;12.30;99.90;;;;;;5023451;28;20204;-29
2022/11/10 02:47:34;;;;;;;10.70;3.10;;;12.30;99.90;;;;;;5012816;28;20241;-30
2022/11/10 02:50:04;;;;;;;8.63;3.10;;;12.30;99.90;;;;;;5012752;28;20224;-30
2022/11/10 02:52:32;;;;;;;10.13;3.10;;;12.30;99.90;;;;;;5019420;28;20221;-30
2022/11/10 02:54:59;;;;;;;10.60;3.00;;;12.30;99.90;;;;;;5017707;28;20213;-30
2022/11/10 02:57:26;;;;;;;11.47;2.93;;;12.30;99.90;;;;;;5015355;28;20338;-30
2022/11/10 02:59:56;;;;;;;9.70;2.70;;;12.30;99.90;;;;;;5016922;28;20202;-30
2022/11/10 03:02:25;;;;;;;8.77;2.43;;;12.30;99.90;;;;;;5011288;28;20211;-30
2022/11/10 03:05:00;;;;;;;7.90;2.83;;;12.30;99.90;;;;;;5012719;28;20315;-30
2022/11/10 03:07:28;;;;;;;13.47;2.97;;;12.30;99.90;;;;;;5012573;28;20209;-29
2022/11/10 03:09:57;;;;;;;11.50;3.07;;;12.30;99.90;;;;;;5013461;28;20722;-29
2022/11/10 03:12:26;;;;;;;9.93;2.83;;;12.20;99.90;;;;;;5015628;28;20598;-29
2022/11/10 03:14:55;;;;;;;9.23;3.10;;;12.20;99.90;;;;;;5010927;28;20212;-29
2022/11/10 03:17:23;;;;;;;10.90;2.70;;;12.20;99.90;;;;;;5016016;28;20232;-29
2022/11/10 03:19:52;;;;;;;6.13;2.87;;;12.20;99.90;;;;;;5005081;28;20217;-29
2022/11/10 03:22:21;;;;;;;12.53;3.00;;;12.20;99.90;;;;;;5007733;28;20213;-29
2022/11/10 03:24:48;;;;;;;9.97;2.93;;;12.10;99.90;;;;;;5006518;28;20197;-29
2022/11/10 03:27:15;;;;;;;8.73;3.13;;;12.10;99.90;;;;;;5007996;28;20286;-29
2022/11/10 03:29:45;;;;;;;8.97;2.77;;;12.10;99.90;;;;;;5003175;28;20608;-30
2022/11/10 03:32:14;;;;;;;11.27;3.03;;;12.10;99.90;;;;;;5000648;28;20605;-29
2022/11/10 03:34:46;;;;;;;11.43;3.03;;;12.10;99.90;;;;;;5016075;28;20198;-29
2022/11/10 03:37:13;;;;;;;9.57;3.20;;;12.10;99.90;;;;;;5007614;28;20570;-29
2022/11/10 03:39:42;;;;;;;6.87;2.57;;;12.10;99.90;;;;;;5019055;28;20329;-29
2022/11/10 03:42:14;;;;;;;9.87;2.77;;;12.00;99.90;;;;;;5013835;28;20783;-29
2022/11/10 03:44:43;;;;;;;8.80;2.60;;;12.00;99.90;;;;;;5021136;28;20206;-29
2022/11/10 03:47:15;;;;;;;8.00;2.73;;;12.00;99.90;;;;;;5002608;28;20233;-29
2022/11/10 03:49:42;;;;;;;6.67;2.70;;;12.00;99.90;;;;;;5007705;28;20214;-29
2022/11/10 03:52:13;;;;;;;9.70;3.03;;;12.00;99.90;;;;;;4997139;28;20225;-29
2022/11/10 03:54:41;;;;;;;7.73;2.57;;;12.00;99.90;;;;;;4996452;28;20237;-29
2022/11/10 03:57:08;;;;;;;9.93;3.33;;;11.90;99.90;;;;;;5014951;28;20211;-29
2022/11/10 03:59:35;;;;;;;10.17;2.67;;;11.90;99.90;;;;;;5007693;28;20230;-29
2022/11/10 04:02:02;;;;;;;8.70;2.67;;;11.90;99.90;;;;;;5006848;28;20225;-29
2022/11/10 04:10:04;;;;;;;12.30;3.00;;;11.90;99.90;;;;;;5002746;28;20295;-29
2022/11/10 04:18:23;;;;;;;8.17;2.70;;;11.80;99.90;;;;;;5016189;28;20223;-29
2022/11/10 04:20:56;;;;;;;8.90;2.80;;;11.80;99.90;;;;;;5008028;28;20194;-30
2022/11/10 04:23:35;;;;;;;9.90;3.00;;;11.70;99.90;;;;;;5004505;28;20212;-29
2022/11/10 04:28:57;;;;;;;7.97;2.60;;;11.70;99.90;;;;;;5007818;28;20205;-29
2022/11/10 04:31:30;;;;;;;7.47;2.57;;;11.70;99.90;;;;;;5009999;28;20204;-29
2022/11/10 04:33:58;;;;;;;9.93;2.60;;;11.70;99.90;;;;;;5004892;28;20217;-29
2022/11/10 04:36:28;;;;;;;10.83;2.80;;;11.70;99.90;;;;;;5004370;28;20214;-29
2022/11/10 04:38:58;;;;;;;9.23;2.43;;;11.70;99.90;;;;;;5032432;28;20425;-29
2022/11/10 04:41:31;;;;;;;9.30;2.50;;;11.70;99.90;;;;;;5011080;28;20213;-29
2022/11/10 04:44:01;;;;;;;8.83;2.37;;;11.60;99.90;;;;;;5006539;28;20279;-29
2022/11/10 04:46:33;;;;;;;9.63;2.93;;;11.60;99.90;;;;;;5019830;28;20201;-29
2022/11/10 04:49:04;;;;;;;7.50;2.33;;;11.60;99.90;;;;;;5008432;28;20726;-29
2022/11/10 04:51:33;;;;;;;7.43;2.33;;;11.60;99.90;;;;;;5015079;28;20212;-29
2022/11/10 04:54:04;;;;;;;7.10;2.50;;;11.60;99.90;;;;;;5003432;28;20314;-29
2022/11/10 04:56:34;;;;;;;9.50;3.10;;;11.60;99.90;;;;;;5008595;28;20679;-29
2022/11/10 04:59:05;;;;;;;8.83;2.37;;;11.60;99.90;;;;;;5010507;28;20232;-29
2022/11/10 05:01:35;;;;;;;7.70;2.10;;;11.60;99.90;;;;;;4991868;28;20277;-29
2022/11/10 05:04:04;;;;;;;8.40;2.40;;;11.60;99.90;;;;;;5009036;28;20206;-29
2022/11/10 05:06:36;;;;;;;7.87;2.57;;;11.50;99.90;;;;;;5001638;28;20270;-29
2022/11/10 05:09:03;;;;;;;8.17;2.50;;;11.50;99.90;;;;;;5004430;28;20657;-29
2022/11/10 05:11:40;;;;;;;10.73;2.63;;;11.50;99.90;;;;;;4997753;28;20532;-30
2022/11/10 05:14:07;;;;;;;8.57;2.50;;;11.50;99.90;;;;;;5011344;28;20735;-29
2022/11/10 05:16:34;;;;;;;10.23;2.73;;;11.50;99.90;;;;;;5004364;28;20300;-29
2022/11/10 05:19:03;;;;;;;10.07;2.53;;;11.50;99.90;;;;;;5002564;28;20214;-29
2022/11/10 05:21:32;;;;;;;10.00;3.00;;;11.50;99.90;;;;;;5004395;28;20601;-29
2022/11/10 05:24:02;;;;;;;8.40;2.37;;;11.50;99.90;;;;;;4998237;28;20569;-29
2022/11/10 05:26:34;;;;;;;9.20;2.53;;;11.50;99.90;;;;;;5013051;28;20209;-29
2022/11/10 05:29:03;;;;;;;10.03;3.00;;;11.50;99.90;;;;;;5002787;28;20286;-29
2022/11/10 05:31:33;;;;;;;12.03;3.00;;;11.40;99.90;;;;;;5004294;28;20210;-29
2022/11/10 05:34:00;;;;;;;10.57;2.43;;;11.40;99.90;;;;;;4996922;28;20213;-29
2022/11/10 05:36:27;;;;;;;6.57;2.10;;;11.40;99.90;;;;;;4994536;28;20291;-29
2022/11/10 05:38:59;;;;;;;12.63;2.37;;;11.40;99.90;;;;;;5011915;28;20236;-29
2022/11/10 05:41:28;;;;;;;9.87;2.90;;;11.40;99.90;;;;;;5007266;28;20213;-29
2022/11/10 05:43:55;;;;;;;6.50;2.53;;;11.40;99.90;;;;;;5007061;28;20538;-30
2022/11/10 05:46:25;;;;;;;8.37;2.70;;;11.40;99.90;;;;;;5008225;28;20216;-29
2022/11/10 05:48:54;;;;;;;8.40;2.10;;;11.30;99.90;;;;;;5003368;28;20237;-29
2022/11/10 05:51:22;;;;;;;10.20;2.30;;;11.30;99.90;;;;;;5012599;28;20647;-31
2022/11/10 05:53:49;;;;;;;8.43;2.90;;;11.30;99.90;;;;;;5005664;28;20205;-31
2022/11/10 05:56:16;;;;;;;11.17;2.60;;;11.30;99.90;;;;;;5013651;28;20273;-30
2022/11/10 05:58:48;;;;;;;11.37;2.50;;;11.30;99.90;;;;;;5011684;28;20228;-30
2022/11/10 06:01:18;;;;;;;14.60;3.77;;;11.30;99.90;;;;;;5009270;28;20625;-31
2022/11/10 06:03:45;;;;;;;8.47;2.63;;;11.30;99.90;;;;;;5004063;28;20208;-30
2022/11/10 06:06:12;;;;;;;11.23;3.10;;;11.30;99.90;;;;;;5002318;28;20209;-32
2022/11/10 06:08:48;;;;;;;12.90;2.80;;;11.30;99.90;;;;;;5015733;28;20324;-32
2022/11/10 06:11:19;;;;;;;6.90;2.40;;;11.30;99.90;;;;;;4993293;28;20574;-32
2022/11/10 06:13:48;;;;;;;13.07;2.87;;;11.30;99.90;;;;;;4997044;28;20651;-32
2022/11/10 06:16:15;;;;;;;8.50;3.07;;;11.30;99.90;;;;;;5000956;28;20231;-33
2022/11/10 06:18:42;;;;;;;7.33;2.50;;;11.30;99.90;;;;;;5001129;28;21010;-33
2022/11/10 06:21:14;;;;;;;13.40;3.17;;;11.30;99.90;;;;;;4999059;28;20696;-33
2022/11/10 06:23:48;;;;;;;10.27;3.40;;;11.30;99.90;;;;;;5000723;28;20212;-32
2022/11/10 06:26:16;;;;;;;11.03;2.93;;;11.30;99.90;;;;;;5006572;28;20210;-33
2022/11/10 06:28:45;;;;;;;10.70;3.20;;;11.20;99.90;;;;;;5011999;28;20746;-32
2022/11/10 06:31:14;;;;;;;11.60;2.93;;;11.30;99.90;;;;;;5007696;28;20706;-33
2022/11/10 06:33:42;;;;;;;10.60;3.60;;;11.30;99.90;;;;;;5015426;28;20212;-33
2022/11/10 06:36:11;;;;;;;13.63;3.77;;;11.30;99.90;;;;;;5005692;28;20680;-32
2022/11/10 06:38:38;;;;;;;18.17;4.50;;;11.20;99.90;;;;;;5007385;28;20213;-32
2022/11/10 06:41:05;;;;;;;29.20;5.33;;;11.20;99.90;;;;;;5013994;28;20203;-32
2022/11/10 06:43:32;;;;;;;23.40;4.90;;;11.20;99.90;;;;;;5002744;28;20293;-32
2022/11/10 06:46:04;;;;;;;15.87;3.60;;;11.30;99.90;;;;;;5015789;28;20216;-32
2022/11/10 06:48:34;;;;;;;11.43;3.03;;;11.20;99.90;;;;;;5021303;28;20268;-33
2022/11/10 06:51:01;;;;;;;13.97;3.40;;;11.30;99.90;;;;;;5009574;28;20210;-32
2022/11/10 06:53:31;;;;;;;12.07;3.20;;;11.30;99.90;;;;;;5008255;28;20977;-32
2022/11/10 06:55:59;;;;;;;14.93;3.23;;;11.30;99.90;;;;;;5005581;28;20213;-33
2022/11/10 06:58:26;;;;;;;12.00;3.87;;;11.30;99.90;;;;;;5013121;28;20218;-32
2022/11/10 07:00:57;;;;;;;12.17;2.90;;;11.30;99.90;;;;;;5001717;28;20424;-33
2022/11/10 07:03:25;;;;;;;12.53;3.00;;;11.30;99.90;;;;;;5000889;28;20306;-33
2022/11/10 07:05:52;;;;;;;11.47;3.27;;;11.30;99.90;;;;;;5014325;28;20213;-33
2022/11/10 07:08:22;;;;;;;13.13;3.43;;;11.30;99.90;;;;;;5005438;28;20225;-32
2022/11/10 07:10:57;;;;;;;11.47;3.10;;;11.30;99.90;;;;;;5012917;28;20316;-33
2022/11/10 07:13:26;;;;;;;9.43;2.93;;;11.30;99.90;;;;;;5008966;28;20222;-32
2022/11/10 07:15:53;;;;;;;14.17;3.33;;;11.30;99.90;;;;;;5024783;28;20216;-32
2022/11/10 07:18:22;;;;;;;16.10;3.33;;;11.30;99.90;;;;;;5005536;28;20225;-32
2022/11/10 07:20:54;;;;;;;13.23;3.00;;;11.30;99.90;;;;;;5001732;28;20839;-32
2022/11/10 07:23:24;;;;;;;13.40;3.00;;;11.30;99.90;;;;;;4994119;28;20451;-32
2022/11/10 07:25:51;;;;;;;10.37;2.60;;;11.30;99.90;;;;;;5005637;28;20209;-32
2022/11/10 07:28:21;;;;;;;10.77;2.53;;;11.30;99.90;;;;;;5010396;28;20577;-33
2022/11/10 07:30:56;;;;;;;15.97;3.20;;;11.30;99.90;;;;;;5001733;28;20310;-32
2022/11/10 07:33:28;;;;;;;11.33;2.90;;;11.30;99.90;;;;;;5017961;28;20312;-33
2022/11/10 07:35:57;;;;;;;13.20;2.63;;;11.30;99.90;;;;;;5003342;28;20208;-33
2022/11/10 07:38:27;;;;;;;18.33;3.37;;;11.30;99.90;;;;;;5008516;28;21331;-32
2022/11/10 07:40:56;;;;;;;11.40;2.87;;;11.30;99.90;;;;;;5019028;28;20200;-32
2022/11/10 07:43:25;;;;;;;17.67;3.07;;;11.30;99.90;;;;;;5009792;28;20197;-32
2022/11/10 07:45:52;;;;;;;16.37;3.50;;;11.40;99.90;;;;;;5011314;28;20197;-33
2022/11/10 07:48:20;;;;;;;15.70;2.97;;;11.40;99.90;;;;;;5016200;28;20237;-31
2022/11/10 07:50:49;;;;;;;9.57;2.80;;;11.40;99.90;;;;;;5019276;28;20212;-31
2022/11/10 07:53:24;;;;;;;12.63;3.27;;;11.40;99.90;;;;;;5010295;28;20201;-31
2022/11/10 07:55:56;;;;;;;9.27;2.70;;;11.40;99.90;;;;;;5010201;28;20196;-31
2022/11/10 07:58:25;;;;;;;11.23;3.47;;;11.50;99.90;;;;;;4997165;28;20225;-32
2022/11/10 08:00:52;;;;;;;15.03;3.17;;;11.50;99.90;;;;;;5014578;28;20208;-32
2022/11/10 08:03:20;;;;;;;11.23;2.80;;;11.50;99.90;;;;;;5005477;28;20208;-33
2022/11/10 08:05:50;;;;;;;11.37;3.20;;;11.50;99.90;;;;;;5002425;28;20760;-33
2022/11/10 08:08:24;;;;;;;10.83;2.93;;;11.60;99.90;;;;;;5005713;28;20206;-33
2022/11/10 08:10:51;;;;;;;9.77;3.00;;;11.60;99.90;;;;;;5004073;28;20198;-33
2022/11/10 08:13:19;;;;;;;7.77;3.00;;;11.60;99.90;;;;;;5005421;28;20221;-32
2022/11/10 08:15:47;;;;;;;9.53;3.00;;;11.60;99.90;;;;;;5006754;28;20682;-32
2022/11/10 08:18:22;;;;;;;12.47;2.73;;;11.70;99.90;;;;;;5006347;28;20201;-32
2022/11/10 08:20:50;;;;;;;13.23;3.10;;;11.70;99.90;;;;;;5003717;28;20201;-33
2022/11/10 08:23:19;;;;;;;13.53;3.13;;;11.70;99.90;;;;;;5017219;28;20228;-32
2022/11/10 08:25:47;;;;;;;11.53;2.90;;;11.80;99.90;;;;;;5021137;28;20216;-32
2022/11/10 08:28:16;;;;;;;13.20;2.97;;;11.80;99.90;;;;;;5005969;28;20193;-32
2022/11/10 08:30:48;;;;;;;15.83;2.97;;;11.80;99.90;;;;;;5010776;28;20300;-33
2022/11/10 08:33:17;;;;;;;11.20;3.33;;;11.80;99.90;;;;;;5021518;28;20249;-33
2022/11/10 08:35:50;;;;;;;14.20;2.90;;;11.90;99.90;;;;;;4999772;28;20236;-32
2022/11/10 08:38:20;;;;;;;17.50;3.80;;;11.90;99.90;;;;;;5019805;28;20226;-30
2022/11/10 08:40:50;;;;;;;10.87;2.90;;;12.00;99.90;;;;;;5019851;28;20741;-30
2022/11/10 08:43:19;;;;;;;11.77;3.33;;;12.00;99.90;;;;;;5018147;28;20204;-30
2022/11/10 08:45:52;;;;;;;10.37;3.13;;;12.00;99.90;;;;;;5017423;28;20220;-31
2022/11/10 08:48:22;;;;;;;12.43;3.30;;;12.10;99.90;;;;;;5008088;28;20352;-31
2022/11/10 08:50:52;;;;;;;11.30;2.83;;;12.10;99.90;;;;;;5007271;28;20231;-31
2022/11/10 08:53:23;;;;;;;8.87;3.13;;;12.20;99.90;;;;;;4997556;28;20217;-30
2022/11/10 08:55:57;;;;;;;13.17;3.80;;;12.20;99.90;;;;;;5023858;28;20219;-30
2022/11/10 08:58:28;;;;;;;17.83;3.10;;;12.30;99.90;;;;;;5016157;28;20220;-31
2022/11/10 09:00:55;;;;;;;12.73;2.70;;;12.30;99.90;;;;;;5006624;28;20240;-30
2022/11/10 09:03:25;;;;;;;10.23;2.87;;;12.40;99.90;;;;;;5018846;28;20511;-33
2022/11/10 09:05:56;;;;;;;15.30;2.90;;;12.40;99.90;;;;;;4988589;28;20548;-33
2022/11/10 09:08:27;;;;;;;10.23;2.60;;;12.50;99.90;;;;;;4985430;28;20209;-33
2022/11/10 09:10:54;;;;;;;10.13;2.43;;;12.50;99.90;;;;;;4995761;28;20294;-33
2022/11/10 09:13:24;;;;;;;9.73;2.63;;;12.60;99.90;;;;;;5011936;28;20697;-30
2022/11/10 09:16:03;;;;;;;13.43;2.83;;;12.60;99.90;;;;;;5022323;28;20267;-30
2022/11/10 09:18:30;;;;;;;18.00;3.73;;;12.70;99.90;;;;;;5020894;28;20583;-31
2022/11/10 09:20:57;;;;;;;17.67;4.47;;;12.80;99.90;;;;;;5002051;28;20331;-33
2022/11/10 09:23:27;;;;;;;15.80;2.80;;;12.80;99.90;;;;;;5003416;28;20241;-33
2022/11/10 09:25:57;;;;;;;11.77;3.00;;;12.90;99.90;;;;;;5005183;28;20244;-33
2022/11/10 09:28:24;;;;;;;14.17;3.00;;;12.90;99.90;;;;;;4999577;28;20302;-31
2022/11/10 09:30:54;;;;;;;8.77;2.57;;;13.00;99.90;;;;;;5010243;28;20327;-30
2022/11/10 09:33:23;;;;;;;16.03;3.40;;;13.00;99.90;;;;;;5001299;28;20591;-30
2022/11/10 09:35:56;;;;;;;11.17;2.93;;;13.10;99.90;;;;;;4991445;28;20228;-33
2022/11/10 09:38:25;;;;;;;15.60;3.53;;;13.10;99.90;;;;;;4999833;28;20245;-33
2022/11/10 09:41:03;;;;;;;11.67;2.80;;;13.20;99.90;;;;;;4997663;28;20276;-33
2022/11/10 09:43:38;;;;;;;12.20;2.77;;;13.30;99.90;;;;;;4996996;28;20197;-33
2022/11/10 09:46:21;;;;;;;14.60;3.30;;;13.30;99.90;;;;;;5008691;28;20656;-33
2022/11/10 09:49:12;;;;;;;11.13;3.30;;;13.40;99.90;;;;;;4999529;28;20712;-30
2022/11/10 09:51:44;;;;;;;13.50;3.27;;;13.40;99.90;;;;;;5001900;28;20202;-30
2022/11/10 09:54:35;;;;;;;15.00;2.73;;;13.40;99.90;;;;;;4995081;28;20198;-30
2022/11/10 09:57:05;;;;;;;12.37;2.80;;;13.60;99.90;;;;;;5002980;28;20203;-31
2022/11/10 09:59:33;;;;;;;12.53;2.70;;;13.60;99.90;;;;;;5002734;28;20222;-31
2022/11/10 10:02:30;;;;;;;12.07;2.70;;;13.60;99.90;;;;;;4987300;28;20199;-30
2022/11/10 10:05:15;;;;;;;9.37;2.30;;;13.70;99.90;;;;;;5008614;28;20205;-30
2022/11/10 10:08:07;;;;;;;8.63;2.23;;;13.80;99.90;;;;;;5006511;28;20217;-30
2022/11/10 10:10:41;;;;;;;13.70;2.43;;;13.80;99.90;;;;;;4996495;28;20361;-31
2022/11/10 10:13:36;;;;;;;9.77;2.40;;;13.80;99.90;;;;;;4998850;28;20227;-30
2022/11/10 10:16:27;;;;;;;16.37;3.27;;;13.90;99.90;;;;;;5011865;28;20253;-30
2022/11/10 10:19:05;;;;;;;13.43;2.33;;;14.00;99.90;;;;;;5012869;28;20801;-30
2022/11/10 10:22:03;;;;;;;10.27;2.37;;;14.00;99.90;;;;;;5018157;28;20850;-30
2022/11/10 10:24:38;;;;;;;12.80;2.40;;;14.10;99.90;;;;;;5000233;28;20209;-31
2022/11/10 10:27:16;;;;;;;13.83;2.40;;;14.10;99.90;;;;;;5010039;28;20666;-30
2022/11/10 10:29:49;;;;;;;12.97;2.47;;;14.20;99.90;;;;;;5003391;28;20233;-30
2022/11/10 10:32:21;;;;;;;12.50;3.07;;;14.20;99.90;;;;;;5011966;28;20212;-30
2022/11/10 10:34:53;;;;;;;11.60;2.43;;;14.30;99.90;;;;;;5008389;28;20372;-31
2022/11/10 10:37:29;;;;;;;8.60;2.27;;;14.30;99.90;;;;;;5012048;28;20201;-30
2022/11/10 10:39:59;;;;;;;10.27;2.50;;;14.40;99.90;;;;;;4999050;28;20316;-30
2022/11/10 10:42:36;;;;;;;9.53;2.67;;;14.50;99.90;;;;;;5014543;28;20217;-30
2022/11/10 10:45:21;;;;;;;14.87;3.63;;;14.50;99.90;;;;;;5023540;28;20580;-30
2022/11/10 10:47:54;;;;;;;9.87;2.40;;;14.60;99.90;;;;;;5008518;28;20241;-30
2022/11/10 10:50:34;;;;;;;9.50;2.47;;;14.60;99.90;;;;;;5008045;28;20211;-30
2022/11/10 10:53:15;;;;;;;9.77;2.40;;;14.70;99.90;;;;;;5004028;28;20215;-30
2022/11/10 10:55:48;;;;;;;10.77;2.53;;;14.70;99.90;;;;;;5012303;28;20200;-30
2022/11/10 10:58:30;;;;;;;10.40;2.70;;;14.70;99.90;;;;;;5012497;28;20207;-29
2022/11/10 11:01:23;;;;;;;9.10;2.47;;;14.80;99.90;;;;;;5006664;28;20221;-29
2022/11/10 11:03:54;;;;;;;8.53;1.97;;;14.80;99.90;;;;;;4999512;28;20225;-30
2022/11/10 11:06:27;;;;;;;12.17;2.27;;;14.90;99.90;;;;;;5013428;28;20205;-29
2022/11/10 11:09:13;;;;;;;9.37;2.47;;;14.90;99.90;;;;;;5011677;28;20216;-29
2022/11/10 11:11:45;;;;;;;5.47;2.30;;;15.00;99.90;;;;;;5015871;28;20226;-29
2022/11/10 11:14:24;;;;;;;10.43;2.20;;;15.10;99.90;;;;;;5019748;28;20311;-29
2022/11/10 11:16:57;;;;;;;8.83;1.80;;;15.20;99.90;;;;;;5007560;28;20209;-29
2022/11/10 11:19:36;;;;;;;10.37;2.30;;;15.20;99.90;;;;;;5012146;28;20302;-29
2022/11/10 11:22:35;;;;;;;10.37;2.10;;;15.20;99.90;;;;;;5018835;28;20284;-29
2022/11/10 11:25:02;;;;;;;17.70;3.33;;;15.30;99.90;;;;;;5011584;28;20230;-29
2022/11/10 11:27:55;;;;;;;13.33;2.43;;;15.30;99.90;;;;;;5010123;28;20550;-32
2022/11/10 11:30:59;;;;;;;7.07;1.90;;;15.40;99.90;;;;;;5011460;28;20242;-29
2022/11/10 11:33:51;;;;;;;9.47;2.10;;;15.40;99.90;;;;;;5005811;28;20207;-29
2022/11/10 11:36:21;;;;;;;7.53;2.00;;;15.40;99.90;;;;;;5017850;28;21007;-29
2022/11/10 11:39:25;;;;;;;7.87;2.07;;;15.50;99.90;;;;;;5015982;28;20744;-31
2022/11/10 11:42:13;;;;;;;9.23;2.40;;;15.60;99.90;;;;;;5021256;28;20227;-31
2022/11/10 11:45:16;;;;;;;5.77;2.20;;;15.60;99.90;;;;;;5006950;28;20209;-29
2022/11/10 11:48:09;;;;;;;6.53;2.00;;;15.70;99.90;;;;;;5005364;28;20247;-29
2022/11/10 11:50:49;;;;;;;10.00;2.57;;;15.70;99.90;;;;;;4996212;28;20594;-29
2022/11/10 11:53:33;;;;;;;6.57;1.80;;;15.70;99.90;;;;;;5006467;28;20197;-29
2022/11/10 11:56:20;;;;;;;7.87;2.27;;;15.80;99.90;;;;;;5017251;28;20209;-29
2022/11/10 11:59:15;;;;;;;9.70;2.17;;;15.80;99.90;;;;;;5017899;28;20304;-29
2022/11/10 12:02:10;;;;;;;7.17;2.10;;;15.90;99.90;;;;;;5002067;28;20586;-31
2022/11/10 12:05:10;;;;;;;14.70;2.50;;;16.00;99.90;;;;;;4987347;28;20999;-32
2022/11/10 12:07:43;;;;;;;7.03;1.93;;;16.00;99.90;;;;;;4997270;28;20206;-29
2022/11/10 12:10:42;;;;;;;7.03;1.77;;;16.10;99.90;;;;;;5005812;28;20304;-29
2022/11/10 12:13:30;;;;;;;7.17;1.93;;;16.10;99.90;;;;;;5005713;28;20299;-29
2022/11/10 12:16:32;;;;;;;6.77;2.00;;;16.10;99.90;;;;;;5004291;28;20489;-29
2022/11/10 12:19:20;;;;;;;6.73;1.90;;;16.10;99.90;;;;;;5010728;28;20575;-29
2022/11/10 12:22:06;;;;;;;4.97;1.80;;;16.20;99.90;;;;;;5022021;28;20852;-29
2022/11/10 12:24:36;;;;;;;4.50;1.63;;;16.20;99.90;;;;;;5009911;28;20226;-29
2022/11/10 12:27:17;;;;;;;7.13;1.53;;;16.20;99.90;;;;;;5001906;28;20205;-30
2022/11/10 12:29:52;;;;;;;9.83;2.13;;;16.20;99.90;;;;;;5008115;28;20205;-30
2022/11/10 12:32:30;;;;;;;12.47;1.97;;;16.20;99.90;;;;;;5016627;28;20674;-31
2022/11/10 12:35:22;;;;;;;7.10;1.80;;;16.30;99.90;;;;;;5001836;28;20580;-31
2022/11/10 12:37:54;;;;;;;8.60;2.00;;;16.30;99.90;;;;;;5010972;28;20292;-31
2022/11/10 12:40:26;;;;;;;9.50;1.97;;;16.30;99.90;;;;;;5007753;28;20233;-31
2022/11/10 12:42:59;;;;;;;6.53;2.10;;;16.30;99.90;;;;;;5002779;28;20310;-31
2022/11/10 12:45:36;;;;;;;6.07;2.17;;;16.30;99.90;;;;;;5017460;28;20241;-31
2022/11/10 12:48:07;;;;;;;8.63;1.77;;;16.30;99.90;;;;;;5022607;28;20729;-31
2022/11/10 12:51:00;;;;;;;7.47;1.47;;;16.30;99.90;;;;;;5025553;28;20683;-31
2022/11/10 12:53:39;;;;;;;5.40;1.63;;;16.30;99.90;;;;;;5005548;28;20422;-31
2022/11/10 12:56:38;;;;;;;6.23;1.60;;;16.40;99.90;;;;;;5021764;28;20359;-31
2022/11/10 12:59:20;;;;;;;7.67;1.60;;;16.40;99.90;;;;;;5003616;28;20698;-31
2022/11/10 13:01:56;;;;;;;6.63;1.83;;;16.40;99.90;;;;;;5005746;28;20232;-31
2022/11/10 13:04:24;;;;;;;5.07;1.67;;;16.40;99.90;;;;;;4999767;28;20201;-30
2022/11/10 13:06:58;;;;;;;7.10;1.63;;;16.40;99.90;;;;;;5015148;28;20227;-30
2022/11/10 13:09:30;;;;;;;4.37;1.30;;;16.40;99.90;;;;;;5022395;28;20683;-31
2022/11/10 13:12:15;;;;;;;6.17;1.60;;;16.40;99.90;;;;;;5024298;28;20299;-31
2022/11/10 13:14:46;;;;;;;4.87;1.30;;;16.40;99.90;;;;;;5009609;28;20244;-31
2022/11/10 13:17:25;;;;;;;5.70;1.40;;;16.50;99.90;;;;;;5022682;28;20735;-31
2022/11/10 13:19:59;;;;;;;5.73;1.83;;;16.50;99.90;;;;;;5025459;28;20461;-30
2022/11/10 13:22:48;;;;;;;10.30;1.67;;;16.50;99.90;;;;;;5010687;28;20310;-31
2022/11/10 13:25:34;;;;;;;4.60;1.50;;;16.60;99.90;;;;;;5011814;28;20271;-31
2022/11/10 13:28:03;;;;;;;6.23;1.87;;;16.60;99.90;;;;;;5010249;28;20217;-31
2022/11/10 13:30:38;;;;;;;7.10;1.67;;;16.60;99.90;;;;;;5004303;28;20206;-31
2022/11/10 13:33:33;;;;;;;7.47;1.80;;;16.60;99.90;;;;;;5002351;28;20609;-30